Will Rogers World Airport
KOKC : now visible

Airfield :











YOU CAN JOIN US ON...

 
LOGIN :

Register | Disclaimer

   EN    FR    IT 

 









Legend :    VFR   Marginal VFR   IFR   Intensive IFR   Very Intensive IFR
Visi :
Ceiling :
>= 8 km
>= 3000ft
5 to 8 km
1000 to 3000 ft
1500m to 5 km
500 to 1000 ft
800 to 1500m
200 to 500 ft
< 800m
< 200 ft
Symbols :   Thunderstorms  Fog  Heavy snow  Heavy precipitations  Wind > 20 kt







- Airport Elevation : 1295 ft
- IATA code : OKC


KOKC - Will Rogers World

CURRENT METAR :
  • 202011Z 11010KT 10SM BKN011 BKN026 26/23 A2993 RMK AO2 T02560228

EXPIRED METARs :
  • 201952Z 12013KT 10SM SCT011 BKN025 BKN030 25/23 A2994 RMK AO2 SLP124 T02500228
  • 201940Z 13014KT 10SM FEW009 BKN019 BKN030 24/23 A2994 RMK AO2 T02440228
  • 201913Z 15009KT 10SM BKN022 BKN027 OVC031 27/22 A2995 RMK AO2 T02670222
  • 201905Z 15008KT 10SM SCT023 OVC030 27/22 A2995 RMK AO2 T02670222
  • 201852Z 17006KT 10SM BKN023 OVC032 27/22 A2995 RMK AO2 SLP125 T02720222
  • 201815Z 17007KT 10SM FEW019 SCT026 BKN032 27/22 A2995 RMK AO2 T02720222
  • 201752Z 15007KT 10SM BKN023 BKN031 27/22 A2996 RMK AO2 SLP129 60001 T02670222 10272 20211 58009

TAF KOKC
Valid from the 20 at 18:00 until the 21 at 18:00 UTC


201730Z 2018/2118 16007KT P6SM FEW015 BKN025
FM201900 16011KT P6SM BKN050 OVC100
FM211200 17013G19KT 6SM BR BKN015
No reported NOTAMs for that airfield.



MET'MAP, your aeronautical weather chart ! - Copyright ORBIFLY December 2007 - Disclaimer

ORBIFLY MET'MAP TEAM :

Programming & Development : Alexandra Zaïnal
Concept & Development : Baudouin d'Aumeries
Co-Development & Prog : Marc-Olivier Méhu
Technical & hardware support : Manuel Goepfert

Contact : metmap@orbifly.com




SOURCES & CREDITS :

   NOAA       Earth
Advisory